createdAt,value
2022-10-02T00:02:27.340Z,16.92
2022-10-02T00:04:57.351Z,16.92
2022-10-02T00:07:33.371Z,16.90
2022-10-02T00:10:12.417Z,16.86
2022-10-02T00:12:38.886Z,16.84
2022-10-02T00:15:22.468Z,16.81
2022-10-02T00:17:53.006Z,16.79
2022-10-02T00:20:27.427Z,16.77
2022-10-02T00:22:53.433Z,16.82
2022-10-02T00:25:51.300Z,16.82
2022-10-02T00:28:25.793Z,16.79
2022-10-02T00:31:33.420Z,16.74
2022-10-02T00:34:21.518Z,16.69
2022-10-02T00:37:00.654Z,16.65
2022-10-02T00:39:45.495Z,16.60
2022-10-02T00:42:54.199Z,16.56
2022-10-02T00:45:32.548Z,16.54
2022-10-02T00:48:04.610Z,16.56
2022-10-02T00:50:30.596Z,16.55
2022-10-02T00:53:22.803Z,16.53
2022-10-02T00:56:06.848Z,16.47
2022-10-02T00:58:42.051Z,16.43
2022-10-02T01:01:13.439Z,16.39
2022-10-02T01:03:43.762Z,16.37
2022-10-02T01:06:11.391Z,16.37
2022-10-02T01:08:38.385Z,16.43
2022-10-02T01:11:06.515Z,16.44
2022-10-02T01:13:33.258Z,16.43
2022-10-02T01:16:00.309Z,16.38
2022-10-02T01:18:28.951Z,16.36
2022-10-02T01:21:04.801Z,16.32
2022-10-02T01:23:49.228Z,16.27
2022-10-02T01:26:15.681Z,16.23
2022-10-02T01:28:41.809Z,16.19
2022-10-02T01:31:14.008Z,16.16
2022-10-02T01:33:42.734Z,16.14
2022-10-02T01:36:14.552Z,16.18
2022-10-02T01:38:41.513Z,16.19
2022-10-02T01:41:10.762Z,16.18
2022-10-02T01:43:47.686Z,16.13
2022-10-02T01:46:16.790Z,16.09
2022-10-02T01:48:47.137Z,16.05
2022-10-02T01:51:38.718Z,16.02
2022-10-02T01:54:32.373Z,15.98
2022-10-02T01:57:26.296Z,15.96
2022-10-02T02:00:13.944Z,16.00
2022-10-02T02:03:07.277Z,15.99
2022-10-02T02:05:42.077Z,15.95
2022-10-02T02:08:36.066Z,15.92
2022-10-02T02:11:13.386Z,15.89
2022-10-02T02:14:09.481Z,15.87
2022-10-02T02:16:41.466Z,15.85
2022-10-02T02:19:16.893Z,15.88
2022-10-02T02:21:52.581Z,15.88
2022-10-02T02:24:36.265Z,15.88
2022-10-02T02:27:04.614Z,15.85
2022-10-02T02:29:35.876Z,15.82
2022-10-02T02:32:08.134Z,15.78
2022-10-02T02:34:43.198Z,15.74
2022-10-02T02:37:15.969Z,15.71
2022-10-02T02:39:56.593Z,15.69
2022-10-02T02:42:26.503Z,15.72
2022-10-02T02:45:15.260Z,15.70
2022-10-02T02:47:45.760Z,15.67
2022-10-02T02:50:21.131Z,15.63
2022-10-02T02:53:03.891Z,15.60
2022-10-02T02:55:41.517Z,15.58
2022-10-02T02:58:24.786Z,15.56
2022-10-02T03:00:50.988Z,15.52
2022-10-02T03:03:17.257Z,15.50
2022-10-02T03:06:02.274Z,15.53
2022-10-02T03:08:33.116Z,15.52
2022-10-02T03:11:05.478Z,15.50
2022-10-02T03:13:37.564Z,15.44
2022-10-02T03:16:21.938Z,15.40
2022-10-02T03:19:06.040Z,15.36
2022-10-02T03:21:56.314Z,15.32
2022-10-02T03:24:26.728Z,15.27
2022-10-02T03:27:02.834Z,15.22
2022-10-02T03:29:44.918Z,15.18
2022-10-02T03:32:14.405Z,15.15
2022-10-02T03:34:40.470Z,15.17
2022-10-02T03:37:07.204Z,15.17
2022-10-02T03:39:33.403Z,15.16
2022-10-02T03:42:00.368Z,15.12
2022-10-02T03:44:26.858Z,15.09
2022-10-02T03:46:53.794Z,15.06
2022-10-02T03:49:19.890Z,15.02
2022-10-02T03:51:46.173Z,14.98
2022-10-02T03:54:19.437Z,14.93
2022-10-02T03:56:58.319Z,14.87
2022-10-02T03:59:55.015Z,14.79
2022-10-02T04:02:47.241Z,14.76
2022-10-02T04:05:33.512Z,14.78
2022-10-02T04:08:09.090Z,14.74
2022-10-02T04:10:44.512Z,14.70
2022-10-02T04:48:06.330Z,14.32
2022-10-02T04:50:54.070Z,14.31
2022-10-02T04:53:51.781Z,14.29
2022-10-02T04:56:31.779Z,14.25
2022-10-02T04:59:36.343Z,14.21
2022-10-02T05:02:50.496Z,14.21
2022-10-02T05:05:31.757Z,14.25
2022-10-02T05:08:10.245Z,14.24
2022-10-02T05:11:00.888Z,14.21
2022-10-02T05:13:36.103Z,14.18
2022-10-02T05:16:19.086Z,14.16
2022-10-02T05:19:01.155Z,14.13
2022-10-02T05:21:39.371Z,14.14
2022-10-02T05:24:39.694Z,14.15
2022-10-02T05:27:27.112Z,14.16
2022-10-02T05:30:29.562Z,14.24
2022-10-02T05:33:01.754Z,14.28
2022-10-02T05:35:53.136Z,14.28
2022-10-02T05:38:57.354Z,14.27
2022-10-02T05:41:26.585Z,14.27
2022-10-02T05:44:14.758Z,14.26
2022-10-02T05:46:51.304Z,14.26
2022-10-02T05:49:22.686Z,14.26
2022-10-02T05:52:04.103Z,14.26
2022-10-02T05:54:30.122Z,14.28
2022-10-02T05:57:04.715Z,14.34
2022-10-02T05:59:51.572Z,14.38
2022-10-02T06:02:39.466Z,14.40
2022-10-02T06:05:21.045Z,14.40
2022-10-02T06:07:53.313Z,14.39
2022-10-02T06:10:28.088Z,14.39
2022-10-02T06:13:19.348Z,14.39
2022-10-02T06:16:12.482Z,14.38
2022-10-02T06:18:43.527Z,14.38
2022-10-02T06:21:23.045Z,14.38
2022-10-02T06:23:55.574Z,14.44
2022-10-02T06:26:28.657Z,14.46
2022-10-02T06:29:27.203Z,14.47
2022-10-02T06:32:05.586Z,14.43
2022-10-02T06:34:31.639Z,14.39
2022-10-02T06:37:00.615Z,14.37
2022-10-02T06:39:48.296Z,14.34
2022-10-02T06:42:34.452Z,14.31
2022-10-02T06:45:27.864Z,14.29
2022-10-02T06:48:01.372Z,14.31
2022-10-02T06:50:50.910Z,14.38
2022-10-02T06:54:08.419Z,14.42
2022-10-02T06:57:11.137Z,14.42
2022-10-02T06:59:52.201Z,14.39
2022-10-02T07:02:55.124Z,14.38
2022-10-02T07:05:30.026Z,14.38
2022-10-02T07:08:20.113Z,14.37
2022-10-02T07:11:11.182Z,14.38
2022-10-02T07:13:55.641Z,14.37
2022-10-02T07:16:27.769Z,14.37
2022-10-02T07:19:17.952Z,14.45
2022-10-02T07:21:53.571Z,14.50
2022-10-02T07:24:30.678Z,14.49
2022-10-02T07:27:15.248Z,14.48
2022-10-02T07:30:11.366Z,14.47
2022-10-02T07:32:51.520Z,14.49
2022-10-02T07:35:32.456Z,14.51
2022-10-02T07:38:07.693Z,14.54
2022-10-02T07:41:15.683Z,14.56
2022-10-02T07:43:41.643Z,14.57
2022-10-02T07:46:16.637Z,14.59
2022-10-02T07:48:49.655Z,14.63
2022-10-02T07:51:46.765Z,14.74
2022-10-02T07:54:38.171Z,14.82
2022-10-02T07:57:30.558Z,14.86
2022-10-02T08:00:15.209Z,14.90
2022-10-02T08:03:31.354Z,14.93
2022-10-02T08:05:59.746Z,14.94
2022-10-02T08:08:44.230Z,14.96
2022-10-02T08:11:22.713Z,14.98
2022-10-02T08:14:14.589Z,14.97
2022-10-02T08:17:08.376Z,14.95
2022-10-02T08:19:41.084Z,14.93
2022-10-02T08:22:24.416Z,14.95
2022-10-02T08:24:57.155Z,15.06
2022-10-02T08:27:34.631Z,15.12
2022-10-02T08:30:03.935Z,15.16
2022-10-02T08:32:34.894Z,15.17
2022-10-02T08:35:05.627Z,15.18
2022-10-02T08:37:46.804Z,15.19
2022-10-02T08:40:25.018Z,15.21
2022-10-02T08:42:54.416Z,15.23
2022-10-02T08:45:26.596Z,15.28
2022-10-02T08:48:11.364Z,15.35
2022-10-02T08:50:46.693Z,15.41
2022-10-02T08:53:42.062Z,15.44
2022-10-02T08:56:30.346Z,15.48
2022-10-02T08:59:05.403Z,15.49
2022-10-02T09:01:32.265Z,15.51
2022-10-02T09:04:10.140Z,15.50
2022-10-02T09:06:54.556Z,15.51
2022-10-02T09:09:43.136Z,15.54
2022-10-02T09:12:25.293Z,15.59
2022-10-02T09:14:59.415Z,15.71
2022-10-02T09:17:44.976Z,15.80
2022-10-02T09:20:40.109Z,15.85
2022-10-02T09:23:46.277Z,15.89
2022-10-02T09:26:21.536Z,15.95
2022-10-02T09:28:56.701Z,16.00
2022-10-02T09:31:41.270Z,16.07
2022-10-02T09:34:41.803Z,16.13
2022-10-02T09:37:17.085Z,16.18
2022-10-02T09:39:55.646Z,16.25
2022-10-02T09:43:06.089Z,16.32
2022-10-02T09:45:57.029Z,16.40
2022-10-02T09:48:29.906Z,16.47
2022-10-02T09:51:25.850Z,16.53
2022-10-02T09:54:29.839Z,16.60
2022-10-02T09:57:38.870Z,16.67
2022-10-02T10:00:17.974Z,16.73
2022-10-02T10:03:06.156Z,16.80
2022-10-02T10:06:11.635Z,16.87
2022-10-02T10:08:48.905Z,16.94
2022-10-02T10:11:43.836Z,17.00
2022-10-02T10:14:25.116Z,17.08
2022-10-02T10:17:22.438Z,17.15
2022-10-02T10:20:03.938Z,17.24
2022-10-02T10:22:57.550Z,17.33
2022-10-02T10:26:10.188Z,17.40
2022-10-02T10:29:00.265Z,17.44
2022-10-02T10:31:44.829Z,17.51
2022-10-02T10:34:26.738Z,17.56
2022-10-02T10:37:20.112Z,17.65
2022-10-02T10:40:00.675Z,17.76
2022-10-02T10:42:44.971Z,17.86
2022-10-02T10:45:47.643Z,17.97
2022-10-02T10:48:34.419Z,18.07
2022-10-02T10:51:29.762Z,18.16
2022-10-02T10:54:33.701Z,18.27
2022-10-02T10:57:29.085Z,18.34
2022-10-02T11:00:16.845Z,18.43
2022-10-02T11:03:26.532Z,18.51
2022-10-02T11:06:30.734Z,18.61
2022-10-02T11:09:19.496Z,18.68
2022-10-02T11:12:09.651Z,18.74
2022-10-02T11:14:51.342Z,18.77
2022-10-02T11:17:26.420Z,18.83
2022-10-02T11:20:01.646Z,18.92
2022-10-02T11:22:55.836Z,18.98
2022-10-02T11:25:42.352Z,19.06
2022-10-02T11:28:30.254Z,19.13
2022-10-02T11:31:07.876Z,19.21
2022-10-02T11:34:11.810Z,19.27
2022-10-02T11:37:01.789Z,19.33
2022-10-02T11:39:27.815Z,19.30
2022-10-02T11:42:06.128Z,19.33
2022-10-02T11:44:50.929Z,19.40
2022-10-02T11:47:27.541Z,19.46
2022-10-02T11:50:23.426Z,19.54
2022-10-02T11:52:58.465Z,19.62
2022-10-02T11:55:45.752Z,19.67
2022-10-02T11:58:44.941Z,19.74
2022-10-02T12:01:37.266Z,19.69
2022-10-02T12:04:36.723Z,19.69
2022-10-02T12:07:14.665Z,19.75
2022-10-02T12:09:43.495Z,19.81
2022-10-02T12:12:28.124Z,19.86
2022-10-02T12:15:02.878Z,19.91
2022-10-02T12:17:53.014Z,19.98
2022-10-02T12:21:00.830Z,20.02
2022-10-02T12:24:05.892Z,20.04
2022-10-02T12:26:59.632Z,20.08
2022-10-02T12:30:24.457Z,20.12
2022-10-02T12:32:56.271Z,20.14
2022-10-02T12:35:53.292Z,20.18
2022-10-02T12:38:51.784Z,20.23
2022-10-02T12:41:42.911Z,20.24
2022-10-02T12:44:44.391Z,20.29
2022-10-02T12:47:36.316Z,20.34
2022-10-02T12:50:40.115Z,20.36
2022-10-02T12:53:43.985Z,20.38
2022-10-02T12:56:41.342Z,20.42
2022-10-02T12:59:19.538Z,20.47
2022-10-02T13:02:10.420Z,20.50
2022-10-02T13:04:45.612Z,20.54
2022-10-02T13:10:56.938Z,20.55
2022-10-02T13:13:50.283Z,20.53
2022-10-02T13:16:35.393Z,20.55
2022-10-02T13:19:15.949Z,20.58
2022-10-02T13:21:48.744Z,20.60
2022-10-02T13:24:50.171Z,20.62
2022-10-02T13:28:13.055Z,20.64
2022-10-02T13:30:47.582Z,20.63
2022-10-02T13:33:23.594Z,20.63
2022-10-02T13:36:07.529Z,20.66
2022-10-02T13:39:09.705Z,20.69
2022-10-02T13:41:36.240Z,20.73
2022-10-02T13:44:11.806Z,20.76
2022-10-02T13:47:11.402Z,20.78
2022-10-02T13:50:14.111Z,20.78
2022-10-02T13:52:51.675Z,20.78
2022-10-02T13:55:22.322Z,20.78
2022-10-02T13:58:04.823Z,20.79
2022-10-02T14:00:37.017Z,20.83
2022-10-02T14:03:33.589Z,20.84
2022-10-02T14:06:21.558Z,20.84
2022-10-02T14:08:58.599Z,20.84
2022-10-02T14:12:02.397Z,20.86
2022-10-02T14:15:00.392Z,20.85
2022-10-02T14:18:21.136Z,20.84
2022-10-02T14:21:03.585Z,20.83
2022-10-02T14:23:54.440Z,20.85
2022-10-02T14:26:53.126Z,20.88
2022-10-02T14:29:45.596Z,20.89
2022-10-02T14:32:31.738Z,20.90
2022-10-02T14:38:24.589Z,20.90
2022-10-02T14:40:56.888Z,20.89
2022-10-02T14:43:42.195Z,20.88
2022-10-02T14:46:21.329Z,20.86
2022-10-02T14:49:12.449Z,20.84
2022-10-02T14:51:44.248Z,20.83
2022-10-02T14:54:48.626Z,20.82
2022-10-02T14:57:56.172Z,20.82
2022-10-02T15:00:35.064Z,20.81
2022-10-02T15:03:17.975Z,20.82
2022-10-02T15:06:26.977Z,20.83
2022-10-02T15:08:59.611Z,20.82
2022-10-02T15:11:35.176Z,20.80
2022-10-02T15:14:35.590Z,20.78
2022-10-02T15:17:29.439Z,20.72
2022-10-02T15:20:19.850Z,20.65
2022-10-02T15:22:55.582Z,20.57
2022-10-02T15:25:50.238Z,20.52
2022-10-02T15:28:40.173Z,20.46
2022-10-02T15:31:35.466Z,20.38
2022-10-02T15:34:20.630Z,20.29
2022-10-02T15:37:32.313Z,20.21
2022-10-02T15:40:16.639Z,20.10
2022-10-02T15:43:15.230Z,20.02
2022-10-02T15:45:53.600Z,19.95
2022-10-02T15:48:25.761Z,19.89
2022-10-02T15:51:36.541Z,19.82
2022-10-02T15:54:02.802Z,19.72
2022-10-02T15:56:28.820Z,19.66
2022-10-02T15:59:45.339Z,19.61
2022-10-02T16:02:43.391Z,19.53
2022-10-02T16:05:28.889Z,19.46
2022-10-02T16:08:07.231Z,19.41
2022-10-02T16:10:52.701Z,19.35
2022-10-02T16:13:27.959Z,19.28
2022-10-02T16:16:14.193Z,19.23
2022-10-02T16:19:02.326Z,19.17
2022-10-02T16:22:01.460Z,19.11
2022-10-02T16:24:38.964Z,19.07
2022-10-02T16:27:19.930Z,19.02
2022-10-02T16:30:10.725Z,18.98
2022-10-02T16:32:58.969Z,18.95
2022-10-02T16:35:43.693Z,18.90
2022-10-02T16:38:22.418Z,18.87
2022-10-02T16:40:58.120Z,18.83
2022-10-02T16:43:42.802Z,18.80
2022-10-02T16:46:37.439Z,18.77
2022-10-02T16:49:19.568Z,18.73
2022-10-02T16:52:10.079Z,18.70
2022-10-02T16:54:39.183Z,18.65
2022-10-02T16:57:40.436Z,18.61
2022-10-02T17:00:15.183Z,18.58
2022-10-02T17:02:49.768Z,18.55
2022-10-02T17:05:28.068Z,18.53
2022-10-02T17:08:22.304Z,18.50
2022-10-02T17:10:55.206Z,18.47
2022-10-02T17:13:30.801Z,18.42
